sensor_id;sensor_type;location;lat;lon;timestamp;P1;durP1;ratioP1;P2;durP2;ratioP2
59786;SDS011;45672;51.612;5.536;2023-05-27T00:00:00;16.20;;;4.10;;
59786;SDS011;45672;51.612;5.536;2023-05-27T00:02:26;8.57;;;3.53;;
59786;SDS011;45672;51.612;5.536;2023-05-27T00:04:51;14.40;;;4.35;;
59786;SDS011;45672;51.612;5.536;2023-05-27T00:07:16;13.13;;;3.70;;
59786;SDS011;45672;51.612;5.536;2023-05-27T00:09:42;11.80;;;4.10;;
59786;SDS011;45672;51.612;5.536;2023-05-27T00:12:07;15.50;;;4.00;;
59786;SDS011;45672;51.612;5.536;2023-05-27T00:14:32;11.85;;;3.45;;
59786;SDS011;45672;51.612;5.536;2023-05-27T00:16:58;14.30;;;3.50;;
59786;SDS011;45672;51.612;5.536;2023-05-27T00:19:24;12.75;;;3.60;;
59786;SDS011;45672;51.612;5.536;2023-05-27T00:21:49;11.55;;;3.60;;
59786;SDS011;45672;51.612;5.536;2023-05-27T00:24:17;12.80;;;3.50;;
59786;SDS011;45672;51.612;5.536;2023-05-27T00:26:43;11.98;;;3.97;;
59786;SDS011;45672;51.612;5.536;2023-05-27T00:29:08;18.77;;;4.25;;
59786;SDS011;45672;51.612;5.536;2023-05-27T00:31:33;13.52;;;3.90;;
59786;SDS011;45672;51.612;5.536;2023-05-27T00:33:59;10.45;;;3.58;;
59786;SDS011;45672;51.612;5.536;2023-05-27T00:36:24;13.23;;;4.10;;
59786;SDS011;45672;51.612;5.536;2023-05-27T00:38:50;8.80;;;3.47;;
59786;SDS011;45672;51.612;5.536;2023-05-27T00:41:15;11.80;;;3.42;;
59786;SDS011;45672;51.612;5.536;2023-05-27T00:43:40;11.95;;;3.25;;
59786;SDS011;45672;51.612;5.536;2023-05-27T00:46:06;13.43;;;3.72;;
59786;SDS011;45672;51.612;5.536;2023-05-27T00:48:31;9.68;;;3.65;;
59786;SDS011;45672;51.612;5.536;2023-05-27T00:50:56;13.95;;;4.05;;
59786;SDS011;45672;51.612;5.536;2023-05-27T00:53:23;11.77;;;3.47;;
59786;SDS011;45672;51.612;5.536;2023-05-27T00:55:50;11.55;;;4.00;;
59786;SDS011;45672;51.612;5.536;2023-05-27T00:58:17;11.73;;;3.60;;
59786;SDS011;45672;51.612;5.536;2023-05-27T01:00:46;10.13;;;3.50;;
59786;SDS011;45672;51.612;5.536;2023-05-27T01:03:11;17.25;;;3.50;;
59786;SDS011;45672;51.612;5.536;2023-05-27T01:05:37;15.27;;;4.07;;
59786;SDS011;45672;51.612;5.536;2023-05-27T01:11:04;10.57;;;3.70;;
59786;SDS011;45672;51.612;5.536;2023-05-27T01:13:36;13.00;;;3.70;;
59786;SDS011;45672;51.612;5.536;2023-05-27T01:16:08;12.50;;;3.97;;
59786;SDS011;45672;51.612;5.536;2023-05-27T01:18:36;13.18;;;3.53;;
59786;SDS011;45672;51.612;5.536;2023-05-27T01:21:06;11.00;;;4.28;;
59786;SDS011;45672;51.612;5.536;2023-05-27T01:23:34;14.45;;;4.13;;
59786;SDS011;45672;51.612;5.536;2023-05-27T01:26:03;12.23;;;4.07;;
59786;SDS011;45672;51.612;5.536;2023-05-27T01:28:29;15.52;;;4.40;;
59786;SDS011;45672;51.612;5.536;2023-05-27T01:30:56;10.38;;;3.83;;
59786;SDS011;45672;51.612;5.536;2023-05-27T01:33:26;17.15;;;4.63;;
59786;SDS011;45672;51.612;5.536;2023-05-27T01:35:57;14.38;;;4.40;;
59786;SDS011;45672;51.612;5.536;2023-05-27T01:38:27;9.30;;;3.90;;
59786;SDS011;45672;51.612;5.536;2023-05-27T01:40:55;18.23;;;4.35;;
59786;SDS011;45672;51.612;5.536;2023-05-27T01:43:22;12.40;;;4.30;;
59786;SDS011;45672;51.612;5.536;2023-05-27T01:45:47;15.93;;;4.07;;
59786;SDS011;45672;51.612;5.536;2023-05-27T01:48:13;15.77;;;4.28;;
59786;SDS011;45672;51.612;5.536;2023-05-27T01:50:38;12.38;;;3.83;;
59786;SDS011;45672;51.612;5.536;2023-05-27T01:53:04;11.65;;;4.47;;
59786;SDS011;45672;51.612;5.536;2023-05-27T01:55:30;17.63;;;4.32;;
59786;SDS011;45672;51.612;5.536;2023-05-27T01:57:56;14.63;;;4.28;;
59786;SDS011;45672;51.612;5.536;2023-05-27T02:00:22;16.20;;;4.45;;
59786;SDS011;45672;51.612;5.536;2023-05-27T02:02:47;15.05;;;4.50;;
59786;SDS011;45672;51.612;5.536;2023-05-27T02:05:13;17.67;;;4.40;;
59786;SDS011;45672;51.612;5.536;2023-05-27T02:07:38;12.00;;;4.20;;
59786;SDS011;45672;51.612;5.536;2023-05-27T02:10:04;16.83;;;5.05;;
59786;SDS011;45672;51.612;5.536;2023-05-27T02:12:30;17.35;;;4.82;;
59786;SDS011;45672;51.612;5.536;2023-05-27T02:14:55;11.38;;;4.30;;
59786;SDS011;45672;51.612;5.536;2023-05-27T02:17:20;12.13;;;4.55;;
59786;SDS011;45672;51.612;5.536;2023-05-27T02:19:45;14.52;;;4.05;;
59786;SDS011;45672;51.612;5.536;2023-05-27T02:22:11;12.23;;;4.38;;
59786;SDS011;45672;51.612;5.536;2023-05-27T02:24:36;14.88;;;4.95;;
59786;SDS011;45672;51.612;5.536;2023-05-27T02:27:02;15.80;;;4.97;;
59786;SDS011;45672;51.612;5.536;2023-05-27T02:29:27;15.15;;;4.03;;
59786;SDS011;45672;51.612;5.536;2023-05-27T02:31:52;13.50;;;4.35;;
59786;SDS011;45672;51.612;5.536;2023-05-27T02:34:18;10.20;;;4.47;;
59786;SDS011;45672;51.612;5.536;2023-05-27T02:36:43;15.25;;;4.75;;
59786;SDS011;45672;51.612;5.536;2023-05-27T02:39:08;10.35;;;3.60;;
59786;SDS011;45672;51.612;5.536;2023-05-27T02:41:35;10.85;;;4.13;;
59786;SDS011;45672;51.612;5.536;2023-05-27T02:44:00;17.52;;;4.40;;
59786;SDS011;45672;51.612;5.536;2023-05-27T02:46:25;12.43;;;4.20;;
59786;SDS011;45672;51.612;5.536;2023-05-27T02:48:51;18.90;;;4.63;;
59786;SDS011;45672;51.612;5.536;2023-05-27T02:51:16;15.65;;;4.82;;
59786;SDS011;45672;51.612;5.536;2023-05-27T02:53:41;13.98;;;4.15;;
59786;SDS011;45672;51.612;5.536;2023-05-27T02:56:07;12.77;;;4.45;;
59786;SDS011;45672;51.612;5.536;2023-05-27T02:58:32;14.60;;;4.75;;
59786;SDS011;45672;51.612;5.536;2023-05-27T03:00:58;12.45;;;4.78;;
59786;SDS011;45672;51.612;5.536;2023-05-27T03:03:23;18.40;;;5.05;;
59786;SDS011;45672;51.612;5.536;2023-05-27T03:05:48;18.98;;;4.78;;
59786;SDS011;45672;51.612;5.536;2023-05-27T03:08:14;12.75;;;4.47;;
59786;SDS011;45672;51.612;5.536;2023-05-27T03:10:40;14.55;;;4.60;;
59786;SDS011;45672;51.612;5.536;2023-05-27T03:13:05;17.83;;;4.93;;
59786;SDS011;45672;51.612;5.536;2023-05-27T03:15:31;14.15;;;4.38;;
59786;SDS011;45672;51.612;5.536;2023-05-27T03:17:57;17.80;;;4.80;;
59786;SDS011;45672;51.612;5.536;2023-05-27T03:20:22;12.95;;;4.80;;
59786;SDS011;45672;51.612;5.536;2023-05-27T03:22:47;15.00;;;4.53;;
59786;SDS011;45672;51.612;5.536;2023-05-27T03:25:13;12.88;;;4.78;;
59786;SDS011;45672;51.612;5.536;2023-05-27T03:27:39;20.23;;;5.20;;
59786;SDS011;45672;51.612;5.536;2023-05-27T03:30:05;15.10;;;5.03;;
59786;SDS011;45672;51.612;5.536;2023-05-27T03:32:32;14.93;;;4.70;;
59786;SDS011;45672;51.612;5.536;2023-05-27T03:34:57;15.85;;;4.97;;
59786;SDS011;45672;51.612;5.536;2023-05-27T03:37:23;12.15;;;5.20;;
59786;SDS011;45672;51.612;5.536;2023-05-27T03:39:48;8.85;;;4.43;;
59786;SDS011;45672;51.612;5.536;2023-05-27T03:42:13;11.00;;;4.63;;
59786;SDS011;45672;51.612;5.536;2023-05-27T03:44:39;16.48;;;4.75;;
59786;SDS011;45672;51.612;5.536;2023-05-27T03:47:05;14.18;;;4.97;;
59786;SDS011;45672;51.612;5.536;2023-05-27T03:49:30;15.18;;;5.07;;
59786;SDS011;45672;51.612;5.536;2023-05-27T03:51:56;11.50;;;4.85;;
59786;SDS011;45672;51.612;5.536;2023-05-27T03:54:21;15.38;;;5.13;;
59786;SDS011;45672;51.612;5.536;2023-05-27T03:56:46;16.35;;;5.57;;
59786;SDS011;45672;51.612;5.536;2023-05-27T03:59:11;14.15;;;4.50;;
59786;SDS011;45672;51.612;5.536;2023-05-27T04:01:38;13.90;;;5.32;;
59786;SDS011;45672;51.612;5.536;2023-05-27T04:04:04;14.88;;;4.68;;
59786;SDS011;45672;51.612;5.536;2023-05-27T04:06:29;14.30;;;4.80;;
59786;SDS011;45672;51.612;5.536;2023-05-27T04:08:56;15.77;;;5.22;;
59786;SDS011;45672;51.612;5.536;2023-05-27T04:11:21;15.55;;;4.88;;
59786;SDS011;45672;51.612;5.536;2023-05-27T04:13:47;16.77;;;5.63;;
59786;SDS011;45672;51.612;5.536;2023-05-27T04:16:13;16.05;;;4.90;;
59786;SDS011;45672;51.612;5.536;2023-05-27T04:18:40;13.55;;;5.85;;
59786;SDS011;45672;51.612;5.536;2023-05-27T04:21:05;18.60;;;5.30;;
59786;SDS011;45672;51.612;5.536;2023-05-27T04:23:30;15.23;;;5.43;;
59786;SDS011;45672;51.612;5.536;2023-05-27T04:25:56;20.48;;;5.20;;
59786;SDS011;45672;51.612;5.536;2023-05-27T04:28:21;13.43;;;5.70;;
59786;SDS011;45672;51.612;5.536;2023-05-27T04:30:47;18.27;;;6.00;;
59786;SDS011;45672;51.612;5.536;2023-05-27T04:33:14;13.32;;;5.40;;
59786;SDS011;45672;51.612;5.536;2023-05-27T04:35:40;24.02;;;6.07;;
59786;SDS011;45672;51.612;5.536;2023-05-27T04:38:09;14.35;;;5.53;;
59786;SDS011;45672;51.612;5.536;2023-05-27T04:40:35;15.73;;;5.57;;
59786;SDS011;45672;51.612;5.536;2023-05-27T04:43:01;15.88;;;5.80;;
59786;SDS011;45672;51.612;5.536;2023-05-27T04:45:26;15.52;;;5.32;;
59786;SDS011;45672;51.612;5.536;2023-05-27T04:47:54;21.52;;;5.63;;
59786;SDS011;45672;51.612;5.536;2023-05-27T04:50:20;12.50;;;5.45;;
59786;SDS011;45672;51.612;5.536;2023-05-27T04:52:45;17.92;;;5.72;;
59786;SDS011;45672;51.612;5.536;2023-05-27T04:55:11;13.90;;;5.78;;
59786;SDS011;45672;51.612;5.536;2023-05-27T04:57:36;17.70;;;6.00;;
59786;SDS011;45672;51.612;5.536;2023-05-27T05:00:06;19.27;;;6.03;;
59786;SDS011;45672;51.612;5.536;2023-05-27T05:02:34;14.80;;;5.20;;
59786;SDS011;45672;51.612;5.536;2023-05-27T05:05:06;17.83;;;5.63;;
59786;SDS011;45672;51.612;5.536;2023-05-27T05:07:36;12.27;;;5.03;;
59786;SDS011;45672;51.612;5.536;2023-05-27T05:10:05;19.45;;;5.68;;
59786;SDS011;45672;51.612;5.536;2023-05-27T05:12:32;15.60;;;6.15;;
59786;SDS011;45672;51.612;5.536;2023-05-27T05:14:57;15.30;;;6.15;;
59786;SDS011;45672;51.612;5.536;2023-05-27T05:17:23;22.23;;;6.07;;
59786;SDS011;45672;51.612;5.536;2023-05-27T05:19:49;13.65;;;5.75;;
59786;SDS011;45672;51.612;5.536;2023-05-27T05:22:15;19.83;;;5.20;;
59786;SDS011;45672;51.612;5.536;2023-05-27T05:24:43;19.63;;;5.03;;
59786;SDS011;45672;51.612;5.536;2023-05-27T05:27:10;16.35;;;5.60;;
59786;SDS011;45672;51.612;5.536;2023-05-27T05:29:35;14.50;;;6.28;;
59786;SDS011;45672;51.612;5.536;2023-05-27T05:32:01;22.63;;;6.03;;
59786;SDS011;45672;51.612;5.536;2023-05-27T05:34:27;16.80;;;6.03;;
59786;SDS011;45672;51.612;5.536;2023-05-27T05:36:52;14.82;;;5.72;;
59786;SDS011;45672;51.612;5.536;2023-05-27T05:39:17;16.77;;;5.15;;
59786;SDS011;45672;51.612;5.536;2023-05-27T05:41:43;14.07;;;5.80;;
59786;SDS011;45672;51.612;5.536;2023-05-27T05:44:08;18.60;;;5.88;;
59786;SDS011;45672;51.612;5.536;2023-05-27T05:46:34;22.38;;;6.20;;
59786;SDS011;45672;51.612;5.536;2023-05-27T05:48:59;16.25;;;5.60;;
59786;SDS011;45672;51.612;5.536;2023-05-27T05:51:24;20.50;;;5.30;;
59786;SDS011;45672;51.612;5.536;2023-05-27T05:53:50;13.88;;;4.63;;
59786;SDS011;45672;51.612;5.536;2023-05-27T05:56:15;15.43;;;5.50;;
59786;SDS011;45672;51.612;5.536;2023-05-27T05:58:40;12.13;;;5.10;;
59786;SDS011;45672;51.612;5.536;2023-05-27T06:01:05;16.90;;;5.53;;
59786;SDS011;45672;51.612;5.536;2023-05-27T06:03:31;18.35;;;5.53;;
59786;SDS011;45672;51.612;5.536;2023-05-27T06:05:56;18.63;;;5.65;;
59786;SDS011;45672;51.612;5.536;2023-05-27T06:08:21;22.63;;;5.63;;
59786;SDS011;45672;51.612;5.536;2023-05-27T06:10:46;16.27;;;5.65;;
59786;SDS011;45672;51.612;5.536;2023-05-27T06:13:12;23.85;;;5.63;;
59786;SDS011;45672;51.612;5.536;2023-05-27T06:15:37;15.60;;;5.43;;
59786;SDS011;45672;51.612;5.536;2023-05-27T06:18:03;19.42;;;5.70;;
59786;SDS011;45672;51.612;5.536;2023-05-27T06:20:29;19.15;;;5.28;;
59786;SDS011;45672;51.612;5.536;2023-05-27T06:22:54;18.98;;;5.97;;
59786;SDS011;45672;51.612;5.536;2023-05-27T06:25:20;16.20;;;5.70;;
59786;SDS011;45672;51.612;5.536;2023-05-27T06:27:45;10.73;;;4.57;;
59786;SDS011;45672;51.612;5.536;2023-05-27T06:30:11;18.70;;;5.72;;
59786;SDS011;45672;51.612;5.536;2023-05-27T06:32:36;16.98;;;5.68;;
59786;SDS011;45672;51.612;5.536;2023-05-27T06:35:02;14.40;;;5.30;;
59786;SDS011;45672;51.612;5.536;2023-05-27T06:37:27;12.43;;;5.35;;
59786;SDS011;45672;51.612;5.536;2023-05-27T06:39:53;18.35;;;6.05;;
59786;SDS011;45672;51.612;5.536;2023-05-27T06:42:18;12.85;;;4.80;;
59786;SDS011;45672;51.612;5.536;2023-05-27T06:44:43;10.98;;;4.53;;
59786;SDS011;45672;51.612;5.536;2023-05-27T06:47:09;17.23;;;5.45;;
59786;SDS011;45672;51.612;5.536;2023-05-27T06:49:35;13.02;;;5.25;;
59786;SDS011;45672;51.612;5.536;2023-05-27T06:52:01;16.60;;;5.47;;
59786;SDS011;45672;51.612;5.536;2023-05-27T06:54:27;12.95;;;4.25;;
59786;SDS011;45672;51.612;5.536;2023-05-27T06:56:52;13.45;;;5.20;;
59786;SDS011;45672;51.612;5.536;2023-05-27T06:59:18;19.45;;;5.43;;
59786;SDS011;45672;51.612;5.536;2023-05-27T07:01:43;19.67;;;5.60;;
59786;SDS011;45672;51.612;5.536;2023-05-27T07:04:08;17.83;;;5.03;;
59786;SDS011;45672;51.612;5.536;2023-05-27T07:06:34;14.98;;;4.88;;
59786;SDS011;45672;51.612;5.536;2023-05-27T07:09:02;15.45;;;4.53;;
59786;SDS011;45672;51.612;5.536;2023-05-27T07:11:27;11.23;;;4.82;;
59786;SDS011;45672;51.612;5.536;2023-05-27T07:13:53;14.93;;;4.82;;
59786;SDS011;45672;51.612;5.536;2023-05-27T07:16:18;11.95;;;4.25;;
59786;SDS011;45672;51.612;5.536;2023-05-27T07:18:44;12.40;;;5.05;;
59786;SDS011;45672;51.612;5.536;2023-05-27T07:21:10;15.95;;;4.95;;
59786;SDS011;45672;51.612;5.536;2023-05-27T07:23:35;17.08;;;5.00;;
59786;SDS011;45672;51.612;5.536;2023-05-27T07:26:00;18.50;;;5.03;;
59786;SDS011;45672;51.612;5.536;2023-05-27T07:28:26;14.05;;;5.10;;
59786;SDS011;45672;51.612;5.536;2023-05-27T07:30:51;16.98;;;5.60;;
59786;SDS011;45672;51.612;5.536;2023-05-27T07:33:17;13.88;;;5.00;;
59786;SDS011;45672;51.612;5.536;2023-05-27T07:35:42;14.20;;;5.00;;
59786;SDS011;45672;51.612;5.536;2023-05-27T07:38:08;13.32;;;4.85;;
59786;SDS011;45672;51.612;5.536;2023-05-27T07:40:34;17.52;;;5.20;;
59786;SDS011;45672;51.612;5.536;2023-05-27T07:43:00;11.68;;;4.82;;
59786;SDS011;45672;51.612;5.536;2023-05-27T07:45:25;12.98;;;4.82;;
59786;SDS011;45672;51.612;5.536;2023-05-27T07:47:50;13.82;;;4.68;;
59786;SDS011;45672;51.612;5.536;2023-05-27T07:50:16;16.23;;;4.57;;
59786;SDS011;45672;51.612;5.536;2023-05-27T07:52:41;11.93;;;4.75;;
59786;SDS011;45672;51.612;5.536;2023-05-27T07:55:07;11.55;;;4.50;;
59786;SDS011;45672;51.612;5.536;2023-05-27T07:57:33;12.15;;;4.72;;
59786;SDS011;45672;51.612;5.536;2023-05-27T07:59:58;12.63;;;4.60;;
59786;SDS011;45672;51.612;5.536;2023-05-27T08:02:24;14.55;;;5.40;;
59786;SDS011;45672;51.612;5.536;2023-05-27T08:04:50;14.10;;;5.28;;
59786;SDS011;45672;51.612;5.536;2023-05-27T08:07:15;13.18;;;4.97;;
59786;SDS011;45672;51.612;5.536;2023-05-27T08:09:41;15.40;;;4.95;;
59786;SDS011;45672;51.612;5.536;2023-05-27T08:12:06;12.70;;;5.32;;
59786;SDS011;45672;51.612;5.536;2023-05-27T08:14:32;13.07;;;4.70;;
59786;SDS011;45672;51.612;5.536;2023-05-27T08:16:57;15.70;;;4.82;;
59786;SDS011;45672;51.612;5.536;2023-05-27T08:19:23;17.13;;;5.40;;
59786;SDS011;45672;51.612;5.536;2023-05-27T08:21:48;12.98;;;5.13;;
59786;SDS011;45672;51.612;5.536;2023-05-27T08:24:13;12.82;;;4.90;;
59786;SDS011;45672;51.612;5.536;2023-05-27T08:26:39;16.52;;;5.22;;
59786;SDS011;45672;51.612;5.536;2023-05-27T08:29:05;14.95;;;5.13;;
59786;SDS011;45672;51.612;5.536;2023-05-27T08:31:30;19.02;;;4.68;;
59786;SDS011;45672;51.612;5.536;2023-05-27T08:33:56;17.42;;;5.07;;
59786;SDS011;45672;51.612;5.536;2023-05-27T08:36:21;14.63;;;5.05;;
59786;SDS011;45672;51.612;5.536;2023-05-27T08:38:47;20.20;;;5.15;;
59786;SDS011;45672;51.612;5.536;2023-05-27T08:41:12;15.88;;;5.05;;
59786;SDS011;45672;51.612;5.536;2023-05-27T08:43:39;15.38;;;5.05;;
59786;SDS011;45672;51.612;5.536;2023-05-27T08:46:05;18.35;;;5.00;;
59786;SDS011;45672;51.612;5.536;2023-05-27T08:48:30;15.30;;;5.47;;
59786;SDS011;45672;51.612;5.536;2023-05-27T08:50:56;14.68;;;5.28;;
59786;SDS011;45672;51.612;5.536;2023-05-27T08:53:22;12.07;;;5.30;;
59786;SDS011;45672;51.612;5.536;2023-05-27T08:55:48;16.50;;;5.53;;
59786;SDS011;45672;51.612;5.536;2023-05-27T08:58:16;13.25;;;4.80;;
59786;SDS011;45672;51.612;5.536;2023-05-27T09:00:42;11.88;;;4.30;;
59786;SDS011;45672;51.612;5.536;2023-05-27T09:03:08;11.85;;;5.03;;
59786;SDS011;45672;51.612;5.536;2023-05-27T09:05:34;11.45;;;4.60;;
59786;SDS011;45672;51.612;5.536;2023-05-27T09:07:59;11.10;;;5.00;;
59786;SDS011;45672;51.612;5.536;2023-05-27T09:10:35;13.00;;;5.15;;
59786;SDS011;45672;51.612;5.536;2023-05-27T09:13:01;15.73;;;5.40;;
59786;SDS011;45672;51.612;5.536;2023-05-27T09:15:26;14.90;;;4.70;;
59786;SDS011;45672;51.612;5.536;2023-05-27T09:17:52;15.25;;;5.15;;
59786;SDS011;45672;51.612;5.536;2023-05-27T09:20:23;13.98;;;4.70;;
59786;SDS011;45672;51.612;5.536;2023-05-27T09:22:56;14.63;;;5.40;;
59786;SDS011;45672;51.612;5.536;2023-05-27T09:25:26;10.45;;;4.72;;
59786;SDS011;45672;51.612;5.536;2023-05-27T09:27:52;13.13;;;4.80;;
59786;SDS011;45672;51.612;5.536;2023-05-27T09:30:22;12.95;;;5.30;;
59786;SDS011;45672;51.612;5.536;2023-05-27T09:32:48;12.32;;;5.10;;
59786;SDS011;45672;51.612;5.536;2023-05-27T09:35:15;17.63;;;5.15;;
59786;SDS011;45672;51.612;5.536;2023-05-27T09:37:41;14.18;;;4.93;;
59786;SDS011;45672;51.612;5.536;2023-05-27T09:40:09;15.63;;;5.00;;
59786;SDS011;45672;51.612;5.536;2023-05-27T09:45:07;10.75;;;4.72;;
59786;SDS011;45672;51.612;5.536;2023-05-27T09:47:41;14.02;;;5.20;;
59786;SDS011;45672;51.612;5.536;2023-05-27T09:50:11;16.15;;;5.30;;
59786;SDS011;45672;51.612;5.536;2023-05-27T09:52:39;14.27;;;5.38;;
59786;SDS011;45672;51.612;5.536;2023-05-27T09:55:06;14.40;;;5.38;;
59786;SDS011;45672;51.612;5.536;2023-05-27T09:57:33;15.30;;;5.85;;
59786;SDS011;45672;51.612;5.536;2023-05-27T09:59:59;14.68;;;5.60;;
59786;SDS011;45672;51.612;5.536;2023-05-27T10:02:35;13.30;;;5.85;;
59786;SDS011;45672;51.612;5.536;2023-05-27T10:05:01;13.10;;;5.80;;
59786;SDS011;45672;51.612;5.536;2023-05-27T10:07:32;17.35;;;5.43;;
59786;SDS011;45672;51.612;5.536;2023-05-27T10:10:02;16.40;;;5.75;;
59786;SDS011;45672;51.612;5.536;2023-05-27T10:12:27;12.20;;;5.45;;
59786;SDS011;45672;51.612;5.536;2023-05-27T10:14:53;15.00;;;5.63;;
59786;SDS011;45672;51.612;5.536;2023-05-27T10:17:20;16.85;;;5.35;;
59786;SDS011;45672;51.612;5.536;2023-05-27T10:20:04;14.25;;;4.82;;
59786;SDS011;45672;51.612;5.536;2023-05-27T10:22:38;15.65;;;5.28;;
59786;SDS011;45672;51.612;5.536;2023-05-27T10:25:11;18.77;;;6.13;;
59786;SDS011;45672;51.612;5.536;2023-05-27T10:27:47;12.98;;;4.93;;
59786;SDS011;45672;51.612;5.536;2023-05-27T10:30:13;16.45;;;4.75;;
59786;SDS011;45672;51.612;5.536;2023-05-27T10:32:48;14.60;;;5.00;;
59786;SDS011;45672;51.612;5.536;2023-05-27T10:35:17;14.43;;;5.13;;
59786;SDS011;45672;51.612;5.536;2023-05-27T10:37:42;12.32;;;5.07;;
59786;SDS011;45672;51.612;5.536;2023-05-27T10:40:09;13.40;;;4.97;;
59786;SDS011;45672;51.612;5.536;2023-05-27T10:42:35;14.18;;;5.07;;
59786;SDS011;45672;51.612;5.536;2023-05-27T10:45:05;13.65;;;5.38;;
59786;SDS011;45672;51.612;5.536;2023-05-27T10:47:36;15.50;;;5.13;;
59786;SDS011;45672;51.612;5.536;2023-05-27T10:50:11;21.90;;;5.20;;
59786;SDS011;45672;51.612;5.536;2023-05-27T10:52:38;14.40;;;5.13;;
59786;SDS011;45672;51.612;5.536;2023-05-27T10:55:04;12.65;;;5.05;;
59786;SDS011;45672;51.612;5.536;2023-05-27T10:57:31;13.75;;;5.63;;
59786;SDS011;45672;51.612;5.536;2023-05-27T10:59:57;16.92;;;5.00;;
59786;SDS011;45672;51.612;5.536;2023-05-27T11:02:29;16.38;;;5.10;;
59786;SDS011;45672;51.612;5.536;2023-05-27T11:05:00;17.85;;;5.13;;
59786;SDS011;45672;51.612;5.536;2023-05-27T11:07:25;12.70;;;4.28;;
59786;SDS011;45672;51.612;5.536;2023-05-27T11:09:52;14.68;;;5.20;;
59786;SDS011;45672;51.612;5.536;2023-05-27T11:12:19;10.82;;;4.30;;
59786;SDS011;45672;51.612;5.536;2023-05-27T11:14:48;16.88;;;4.85;;
59786;SDS011;45672;51.612;5.536;2023-05-27T11:17:15;18.52;;;5.55;;
59786;SDS011;45672;51.612;5.536;2023-05-27T11:19:41;12.60;;;4.35;;
59786;SDS011;45672;51.612;5.536;2023-05-27T11:22:08;12.15;;;4.05;;
59786;SDS011;45672;51.612;5.536;2023-05-27T11:24:34;17.60;;;4.60;;
59786;SDS011;45672;51.612;5.536;2023-05-27T11:27:07;8.80;;;3.78;;
59786;SDS011;45672;51.612;5.536;2023-05-27T11:29:34;10.98;;;4.40;;
59786;SDS011;45672;51.612;5.536;2023-05-27T11:32:00;14.93;;;4.63;;
59786;SDS011;45672;51.612;5.536;2023-05-27T11:34:25;16.60;;;5.30;;
59786;SDS011;45672;51.612;5.536;2023-05-27T11:36:52;12.20;;;4.93;;
59786;SDS011;45672;51.612;5.536;2023-05-27T11:39:18;11.02;;;4.88;;
59786;SDS011;45672;51.612;5.536;2023-05-27T11:41:50;9.32;;;4.50;;
59786;SDS011;45672;51.612;5.536;2023-05-27T11:44:17;11.50;;;4.35;;
59786;SDS011;45672;51.612;5.536;2023-05-27T11:46:43;14.98;;;4.43;;
59786;SDS011;45672;51.612;5.536;2023-05-27T11:49:15;15.73;;;4.70;;
59786;SDS011;45672;51.612;5.536;2023-05-27T11:51:43;17.88;;;5.10;;
59786;SDS011;45672;51.612;5.536;2023-05-27T11:56:45;12.82;;;4.25;;
59786;SDS011;45672;51.612;5.536;2023-05-27T11:59:11;16.30;;;4.80;;
59786;SDS011;45672;51.612;5.536;2023-05-27T12:01:36;10.77;;;4.30;;
59786;SDS011;45672;51.612;5.536;2023-05-27T12:04:01;15.75;;;4.68;;
59786;SDS011;45672;51.612;5.536;2023-05-27T12:06:27;14.35;;;4.68;;
59786;SDS011;45672;51.612;5.536;2023-05-27T12:08:52;12.07;;;4.43;;
59786;SDS011;45672;51.612;5.536;2023-05-27T12:11:17;15.27;;;4.18;;
59786;SDS011;45672;51.612;5.536;2023-05-27T12:13:43;13.20;;;4.75;;
59786;SDS011;45672;51.612;5.536;2023-05-27T12:16:08;12.32;;;4.18;;
59786;SDS011;45672;51.612;5.536;2023-05-27T12:18:33;17.23;;;4.78;;
59786;SDS011;45672;51.612;5.536;2023-05-27T12:20:59;15.30;;;4.22;;
59786;SDS011;45672;51.612;5.536;2023-05-27T12:23:24;14.85;;;4.15;;
59786;SDS011;45672;51.612;5.536;2023-05-27T12:25:50;11.43;;;4.13;;
59786;SDS011;45672;51.612;5.536;2023-05-27T12:28:15;12.85;;;4.03;;
59786;SDS011;45672;51.612;5.536;2023-05-27T12:30:40;13.75;;;4.25;;
59786;SDS011;45672;51.612;5.536;2023-05-27T12:33:06;16.38;;;3.83;;
59786;SDS011;45672;51.612;5.536;2023-05-27T12:35:31;14.43;;;4.40;;
59786;SDS011;45672;51.612;5.536;2023-05-27T12:37:58;18.20;;;4.47;;
59786;SDS011;45672;51.612;5.536;2023-05-27T12:40:24;18.23;;;4.47;;
59786;SDS011;45672;51.612;5.536;2023-05-27T12:42:50;15.75;;;4.47;;
59786;SDS011;45672;51.612;5.536;2023-05-27T12:45:15;16.05;;;4.60;;
59786;SDS011;45672;51.612;5.536;2023-05-27T12:47:41;13.18;;;4.20;;
59786;SDS011;45672;51.612;5.536;2023-05-27T12:50:06;12.65;;;4.05;;
59786;SDS011;45672;51.612;5.536;2023-05-27T12:52:32;15.90;;;3.92;;
59786;SDS011;45672;51.612;5.536;2023-05-27T12:54:57;11.95;;;4.25;;
59786;SDS011;45672;51.612;5.536;2023-05-27T12:57:23;12.38;;;3.95;;
59786;SDS011;45672;51.612;5.536;2023-05-27T12:59:48;14.85;;;4.97;;
59786;SDS011;45672;51.612;5.536;2023-05-27T13:02:13;12.88;;;4.10;;
59786;SDS011;45672;51.612;5.536;2023-05-27T13:04:39;17.35;;;4.60;;
59786;SDS011;45672;51.612;5.536;2023-05-27T13:07:05;12.60;;;4.47;;
59786;SDS011;45672;51.612;5.536;2023-05-27T13:09:30;15.52;;;4.25;;
59786;SDS011;45672;51.612;5.536;2023-05-27T13:11:56;12.02;;;4.00;;
59786;SDS011;45672;51.612;5.536;2023-05-27T13:14:22;11.07;;;4.05;;
59786;SDS011;45672;51.612;5.536;2023-05-27T13:16:47;14.00;;;4.25;;
59786;SDS011;45672;51.612;5.536;2023-05-27T13:19:13;14.23;;;4.30;;
59786;SDS011;45672;51.612;5.536;2023-05-27T13:21:39;14.23;;;3.75;;
59786;SDS011;45672;51.612;5.536;2023-05-27T13:24:04;16.58;;;4.82;;
59786;SDS011;45672;51.612;5.536;2023-05-27T13:26:29;14.30;;;4.68;;
59786;SDS011;45672;51.612;5.536;2023-05-27T13:28:55;10.90;;;4.40;;
59786;SDS011;45672;51.612;5.536;2023-05-27T13:31:24;14.15;;;4.10;;
59786;SDS011;45672;51.612;5.536;2023-05-27T13:33:49;12.38;;;4.20;;
59786;SDS011;45672;51.612;5.536;2023-05-27T13:36:14;10.18;;;3.92;;
59786;SDS011;45672;51.612;5.536;2023-05-27T13:38:40;10.18;;;3.60;;
59786;SDS011;45672;51.612;5.536;2023-05-27T13:41:05;11.32;;;4.13;;
59786;SDS011;45672;51.612;5.536;2023-05-27T13:43:30;9.95;;;4.05;;
59786;SDS011;45672;51.612;5.536;2023-05-27T13:45:56;16.80;;;4.60;;
59786;SDS011;45672;51.612;5.536;2023-05-27T13:48:21;11.70;;;3.75;;
59786;SDS011;45672;51.612;5.536;2023-05-27T13:50:47;7.43;;;3.90;;
59786;SDS011;45672;51.612;5.536;2023-05-27T13:53:12;14.10;;;4.25;;
59786;SDS011;45672;51.612;5.536;2023-05-27T13:55:37;12.80;;;3.88;;
59786;SDS011;45672;51.612;5.536;2023-05-27T13:58:02;13.80;;;4.68;;
59786;SDS011;45672;51.612;5.536;2023-05-27T14:00:28;10.88;;;4.55;;
59786;SDS011;45672;51.612;5.536;2023-05-27T14:02:55;15.75;;;4.38;;
59786;SDS011;45672;51.612;5.536;2023-05-27T14:05:23;13.63;;;4.88;;
59786;SDS011;45672;51.612;5.536;2023-05-27T14:07:48;13.95;;;4.47;;
59786;SDS011;45672;51.612;5.536;2023-05-27T14:10:13;13.90;;;4.38;;
59786;SDS011;45672;51.612;5.536;2023-05-27T14:12:39;13.80;;;4.55;;
59786;SDS011;45672;51.612;5.536;2023-05-27T14:15:04;11.60;;;4.40;;
59786;SDS011;45672;51.612;5.536;2023-05-27T14:17:30;14.38;;;4.78;;
59786;SDS011;45672;51.612;5.536;2023-05-27T14:19:56;15.60;;;4.70;;
59786;SDS011;45672;51.612;5.536;2023-05-27T14:22:21;14.20;;;4.70;;
59786;SDS011;45672;51.612;5.536;2023-05-27T14:24:47;14.23;;;4.20;;
59786;SDS011;45672;51.612;5.536;2023-05-27T14:27:13;13.93;;;4.80;;
59786;SDS011;45672;51.612;5.536;2023-05-27T14:29:38;11.43;;;4.63;;
59786;SDS011;45672;51.612;5.536;2023-05-27T14:32:03;12.13;;;4.50;;
59786;SDS011;45672;51.612;5.536;2023-05-27T14:34:29;15.10;;;4.72;;
59786;SDS011;45672;51.612;5.536;2023-05-27T14:36:54;10.32;;;4.47;;